Time;durP1;ratioP1;P1;durP2;ratioP2;P2;SDS_P1;SDS_P2;PMS_P1;PMS_P2;Temp;Humidity;BMP_temperature;BMP_pressure;BME280_temperature;BME280_humidity;BME280_pressure;Samples;Min_cycle;Max_cycle;Signal;HPM_P1;HPM_P2
2022/04/13 00:00:37;;;;;;;36.97;14.75;;;;;;;9.59;60.32;101152.31;5014494;28;20448;-79
2022/04/13 00:03:02;;;;;;;25.60;11.77;;;;;;;9.56;60.64;101144.50;5014772;28;20025;-80
2022/04/13 00:05:28;;;;;;;27.15;11.98;;;;;;;9.45;60.57;101133.59;5014508;28;20045;-80
2022/04/13 00:07:55;;;;;;;27.63;12.77;;;;;;;9.43;60.01;101137.38;5014420;28;20021;-81
2022/04/13 00:10:20;;;;;;;21.58;12.02;;;;;;;9.42;60.16;101132.97;5014757;28;20028;-81
2022/04/13 00:12:45;;;;;;;34.30;16.77;;;;;;;9.37;60.34;101141.34;5014291;28;20168;-80
2022/04/13 00:15:11;;;;;;;25.95;13.30;;;;;;;9.28;60.25;101132.09;5014399;28;20488;-80
2022/04/13 00:17:37;;;;;;;20.65;11.15;;;;;;;9.33;60.69;101129.06;5014285;28;20445;-81
2022/04/13 00:20:04;;;;;;;35.85;14.05;;;;;;;9.34;60.87;101130.81;5014434;28;20060;-81
2022/04/13 00:22:30;;;;;;;22.52;13.90;;;;;;;9.31;60.10;101136.38;5014412;28;20030;-80
2022/04/13 00:24:55;;;;;;;27.13;13.57;;;;;;;9.24;60.59;101130.56;5014752;28;20052;-80
2022/04/13 00:27:21;;;;;;;32.13;13.75;;;;;;;9.12;60.50;101128.72;5012969;28;20053;-80
2022/04/13 00:29:48;;;;;;;36.85;14.55;;;;;;;9.19;60.54;101134.53;5014211;28;20030;-79
2022/04/13 00:32:14;;;;;;;35.55;15.45;;;;;;;9.14;61.10;101139.34;5013889;28;20086;-80
2022/04/13 00:34:40;;;;;;;37.75;18.08;;;;;;;9.11;60.84;101139.56;5013666;28;20089;-79
2022/04/13 00:37:06;;;;;;;32.50;16.48;;;;;;;8.95;61.34;101130.81;5014253;28;20052;-81
2022/04/13 00:39:32;;;;;;;23.75;12.88;;;;;;;8.91;61.18;101134.66;5014428;28;20472;-82
2022/04/13 00:41:58;;;;;;;20.13;10.80;;;;;;;8.83;61.79;101139.69;5014367;28;20025;-80
2022/04/13 00:44:25;;;;;;;17.95;11.25;;;;;;;8.72;62.10;101138.56;5013912;28;20411;-81
2022/04/13 00:46:51;;;;;;;21.20;9.15;;;;;;;8.66;61.94;101130.03;5013773;28;20053;-80
2022/04/13 00:49:17;;;;;;;15.32;9.63;;;;;;;8.59;61.82;101137.63;5013657;28;20594;-79
2022/04/13 00:51:42;;;;;;;23.38;9.50;;;;;;;8.55;62.89;101130.75;5014476;28;20073;-82
2022/04/13 00:54:10;;;;;;;22.27;9.43;;;;;;;8.51;62.92;101136.41;5013744;28;20123;-79
2022/04/13 00:56:38;;;;;;;26.58;9.80;;;;;;;8.54;62.19;101129.03;5013693;28;20026;-80
2022/04/13 00:59:12;;;;;;;18.38;10.02;;;;;;;8.49;62.36;101136.53;5014417;28;20018;-80
2022/04/13 01:01:42;;;;;;;20.35;9.63;;;;;;;8.38;62.23;101130.97;5014243;28;20460;-80
2022/04/13 01:04:11;;;;;;;23.77;10.52;;;;;;;8.30;61.88;101119.91;5015558;28;20044;-81
2022/04/13 01:06:39;;;;;;;12.00;7.90;;;;;;;8.41;62.02;101132.63;5031164;28;20034;-81
2022/04/13 01:09:05;;;;;;;17.38;7.85;;;;;;;8.48;62.05;101129.44;5015651;28;20424;-79
2022/04/13 01:11:31;;;;;;;12.93;7.28;;;;;;;8.46;60.42;101126.00;5013968;28;20026;-79
2022/04/13 01:13:57;;;;;;;15.27;7.05;;;;;;;8.61;60.36;101140.22;5014173;28;20143;-81
2022/04/13 01:16:24;;;;;;;15.05;7.97;;;;;;;8.59;59.46;101126.91;5013719;28;20029;-82
2022/04/13 01:18:50;;;;;;;13.07;8.25;;;;;;;8.63;60.13;101128.44;5014109;28;20466;-80
2022/04/13 01:21:19;;;;;;;14.10;7.70;;;;;;;8.66;59.86;101122.88;5012892;28;20391;-80
2022/04/13 01:23:45;;;;;;;16.55;7.78;;;;;;;8.72;59.39;101126.97;5013580;28;20476;-80
2022/04/13 01:26:12;;;;;;;12.45;6.82;;;;;;;8.76;58.99;101120.44;5014038;28;20045;-79
2022/04/13 01:28:37;;;;;;;11.48;7.45;;;;;;;8.82;58.60;101132.56;5013366;28;20476;-81
2022/04/13 01:31:04;;;;;;;27.00;8.18;;;;;;;8.76;58.07;101133.84;5013501;28;20061;-79
2022/04/13 01:33:30;;;;;;;23.30;9.35;;;;;;;8.70;58.24;101123.53;5013811;28;20406;-82
2022/04/13 01:36:00;;;;;;;23.17;8.88;;;;;;;8.73;58.85;101134.06;5013615;28;20021;-80
2022/04/13 01:38:27;;;;;;;24.20;8.63;;;;;;;8.69;58.98;101136.06;5013408;28;20029;-79
2022/04/13 01:40:54;;;;;;;15.98;8.55;;;;;;;8.69;59.46;101124.47;5013196;28;20033;-81
2022/04/13 01:43:20;;;;;;;17.80;8.05;;;;;;;8.67;59.71;101119.22;5013355;28;20034;-80
2022/04/13 01:45:45;;;;;;;30.00;10.77;;;;;;;8.61;59.34;101114.28;5013174;28;20032;-81
2022/04/13 01:48:11;;;;;;;48.42;10.55;;;;;;;8.59;59.79;101126.06;5012705;28;20503;-82
2022/04/13 01:50:36;;;;;;;25.77;10.05;;;;;;;8.59;59.93;101129.56;5013062;28;20034;-82
2022/04/13 01:53:01;;;;;;;25.65;10.38;;;;;;;8.55;59.64;101125.41;5013656;28;20053;-81
2022/04/13 01:55:27;;;;;;;38.67;11.32;;;;;;;8.48;59.37;101129.44;5013210;28;20030;-79
2022/04/13 01:57:52;;;;;;;34.38;11.98;;;;;;;8.45;59.54;101135.00;5012935;28;20044;-80
2022/04/13 02:00:18;;;;;;;48.17;13.38;;;;;;;8.39;59.43;101135.38;5013026;28;20026;-82
2022/04/13 02:02:43;;;;;;;45.50;13.80;;;;;;;8.23;59.87;101131.91;5013479;28;20129;-81
2022/04/13 02:05:10;;;;;;;47.05;13.65;;;;;;;8.16;60.15;101118.03;5013138;28;20469;-80
2022/04/13 02:07:35;;;;;;;31.40;12.85;;;;;;;8.18;60.16;101136.72;5013219;28;20110;-81
2022/04/13 02:10:01;;;;;;;36.08;13.25;;;;;;;8.16;59.91;101141.31;5013339;28;20044;-82
2022/04/13 02:12:27;;;;;;;25.75;13.40;;;;;;;8.13;59.74;101133.47;5013306;28;20535;-81
2022/04/13 02:14:53;;;;;;;38.45;12.48;;;;;;;8.18;59.33;101131.34;5013134;28;20068;-81
2022/04/13 02:17:19;;;;;;;24.48;11.70;;;;;;;8.27;59.27;101136.13;5012730;28;20022;-80
2022/04/13 02:19:45;;;;;;;22.58;11.40;;;;;;;8.35;59.58;101144.56;5012855;28;20037;-79
2022/04/13 02:22:10;;;;;;;17.45;9.02;;;;;;;8.41;58.80;101133.44;5013385;28;20056;-81
2022/04/13 02:24:37;;;;;;;15.23;9.27;;;;;;;8.51;58.29;101139.09;5013154;28;20113;-81
2022/04/13 02:27:03;;;;;;;15.65;9.00;;;;;;;8.60;57.78;101134.00;5013260;28;20030;-81
2022/04/13 02:29:28;;;;;;;15.38;7.93;;;;;;;8.70;56.83;101129.75;5012717;28;20243;-80
2022/04/13 02:31:54;;;;;;;18.45;8.23;;;;;;;8.77;57.71;101131.06;5012714;28;20100;-80
2022/04/13 02:34:19;;;;;;;18.02;7.10;;;;;;;8.88;56.76;101129.50;5012956;28;20362;-80
2022/04/13 02:36:45;;;;;;;11.43;6.38;;;;;;;8.94;56.13;101132.63;5012779;28;20038;-80
2022/04/13 02:39:11;;;;;;;17.05;6.93;;;;;;;9.04;55.36;101133.75;5013494;28;20034;-81
2022/04/13 02:41:36;;;;;;;10.15;5.50;;;;;;;9.07;55.05;101140.72;5020717;28;20061;-80
2022/04/13 02:44:02;;;;;;;14.48;5.88;;;;;;;9.12;54.10;101141.28;5021303;28;20029;-81
2022/04/13 02:46:27;;;;;;;8.85;5.88;;;;;;;9.09;54.48;101139.66;5012783;28;20036;-81
2022/04/13 02:48:53;;;;;;;12.10;6.95;;;;;;;9.08;55.26;101145.13;5013232;28;20026;-80
2022/04/13 02:51:18;;;;;;;36.00;19.05;;;;;;;9.06;56.46;101152.41;5017249;28;20037;-82
2022/04/13 02:53:44;;;;;;;46.47;22.17;;;;;;;8.94;58.28;101137.13;5025008;28;20040;-80
2022/04/13 02:56:09;;;;;;;39.08;20.20;;;;;;;8.94;59.30;101145.19;5024365;28;20037;-79
2022/04/13 02:58:35;;;;;;;36.70;20.40;;;;;;;8.91;59.50;101137.34;5017986;28;20460;-81
2022/04/13 03:01:03;;;;;;;26.80;17.77;;;;;;;8.91;59.34;101143.56;5016030;28;20014;-81
2022/04/13 03:03:29;;;;;;;42.20;20.38;;;;;;;8.74;59.98;101146.50;5015888;28;20052;-81
2022/04/13 03:05:54;;;;;;;54.78;23.08;;;;;;;8.68;60.51;101163.84;5014298;28;20447;-80
2022/04/13 03:08:20;;;;;;;48.00;22.65;;;;;;;8.69;60.70;101154.84;5016201;28;20022;-81
2022/04/13 03:10:46;;;;;;;35.72;19.33;;;;;;;8.72;60.50;101165.38;5014640;28;20053;-81
2022/04/13 03:13:11;;;;;;;32.35;19.77;;;;;;;8.67;60.57;101156.78;5015668;28;20507;-82
2022/04/13 03:15:37;;;;;;;30.48;16.35;;;;;;;8.63;59.97;101173.16;5015929;28;20040;-80
2022/04/13 03:18:02;;;;;;;26.65;15.95;;;;;;;8.69;60.36;101178.97;5015514;28;20026;-82
2022/04/13 03:20:28;;;;;;;28.45;15.38;;;;;;;8.65;59.79;101174.75;5015175;28;20036;-81
2022/04/13 03:22:53;;;;;;;44.70;15.77;;;;;;;8.64;60.04;101170.38;5015613;28;20033;-80
2022/04/13 03:25:19;;;;;;;41.50;16.17;;;;;;;8.67;59.33;101182.72;5015027;28;20105;-81
2022/04/13 03:27:44;;;;;;;29.27;16.88;;;;;;;8.67;60.40;101183.59;5015162;28;20456;-80
2022/04/13 03:30:13;;;;;;;41.53;22.35;;;;;;;8.71;60.30;101189.63;5015453;28;20034;-81
2022/04/13 03:32:39;;;;;;;54.70;29.23;;;;;;;8.71;60.81;101185.09;5014742;28;20053;-80
2022/04/13 03:35:07;;;;;;;52.22;29.75;;;;;;;8.77;60.94;101182.00;5014944;28;20087;-80
2022/04/13 03:37:33;;;;;;;57.22;28.02;;;;;;;8.65;60.95;101173.94;5015451;28;20100;-80
2022/04/13 03:39:58;;;;;;;73.88;30.95;;;;;;;8.54;60.94;101188.00;5015292;28;20444;-80
2022/04/13 03:42:23;;;;;;;49.70;27.70;;;;;;;8.42;61.87;101199.50;5015340;28;20029;-81
2022/04/13 03:44:49;;;;;;;34.13;16.27;;;;;;;8.48;60.22;101198.25;5015355;28;20129;-80
2022/04/13 03:47:15;;;;;;;49.58;23.70;;;;;;;8.45;60.92;101196.63;5015349;28;20018;-80
2022/04/13 03:49:40;;;;;;;46.70;24.30;;;;;;;8.46;61.13;101194.81;5014959;28;20026;-80
2022/04/13 03:52:06;;;;;;;49.20;24.17;;;;;;;8.51;61.47;101198.94;5015187;28;20480;-80
2022/04/13 03:54:31;;;;;;;41.25;22.10;;;;;;;8.56;60.92;101206.69;5015037;28;20025;-80
2022/04/13 03:56:57;;;;;;;48.55;21.30;;;;;;;8.61;60.41;101213.47;5015210;28;20033;-80
2022/04/13 03:59:23;;;;;;;57.67;25.23;;;;;;;8.65;61.44;101212.28;5014551;28;20030;-80
2022/04/13 04:01:49;;;;;;;46.22;26.70;;;;;;;8.66;61.44;101197.94;5016405;28;20546;-85
2022/04/13 04:04:14;;;;;;;54.40;23.45;;;;;;;8.80;61.51;101206.94;5014891;28;20026;-86
2022/04/13 04:06:40;;;;;;;53.08;24.75;;;;;;;8.69;61.87;101205.78;5015088;28;20476;-79
2022/04/13 04:09:05;;;;;;;59.67;24.65;;;;;;;8.57;62.18;101211.06;5014153;28;20105;-79
2022/04/13 04:11:31;;;;;;;42.25;23.67;;;;;;;8.62;61.66;101200.94;5014311;28;20029;-79
2022/04/13 04:13:56;;;;;;;52.20;20.85;;;;;;;8.79;61.85;101207.88;5014400;28;20073;-80
2022/04/13 04:16:22;;;;;;;51.25;20.55;;;;;;;8.91;60.27;101201.72;5019914;28;20030;-79
2022/04/13 04:18:50;;;;;;;19.25;8.38;;;;;;;8.85;56.41;101186.03;5029768;28;20124;-86
2022/04/13 04:21:16;;;;;;;16.60;7.00;;;;;;;8.95;52.64;101203.25;5035132;28;20049;-87
2022/04/13 04:23:42;;;;;;;20.65;7.70;;;;;;;8.81;51.95;101180.00;5001225;28;20038;-86
2022/04/13 04:26:09;;;;;;;23.85;7.20;;;;;;;8.92;52.24;101192.72;4994254;28;20045;-79
2022/04/13 04:28:34;;;;;;;28.13;6.97;;;;;;;9.04;50.70;101210.69;5003034;28;20411;-76
2022/04/13 04:31:02;;;;;;;26.58;7.43;;;;;;;9.11;50.84;101214.69;5012274;28;20033;-77
2022/04/13 04:33:27;;;;;;;14.55;7.00;;;;;;;9.25;50.51;101203.91;5013052;28;20041;-77
2022/04/13 04:35:53;;;;;;;19.90;7.45;;;;;;;9.38;49.89;101212.00;5013338;28;20399;-76
2022/04/13 04:38:19;;;;;;;23.40;7.20;;;;;;;9.37;50.11;101205.75;5013769;28;20389;-80
2022/04/13 04:40:45;;;;;;;33.45;8.20;;;;;;;9.45;49.63;101213.31;5013307;28;20075;-79
2022/04/13 04:43:10;;;;;;;20.35;7.85;;;;;;;9.54;50.12;101218.91;5013428;28;20029;-77
2022/04/13 04:45:37;;;;;;;46.78;9.57;;;;;;;9.70;50.17;101218.72;5011225;28;20094;-77
2022/04/13 04:48:06;;;;;;;26.42;6.88;;;;;;;9.79;49.25;101224.31;5013125;28;20018;-77
2022/04/13 04:50:32;;;;;;;33.25;6.82;;;;;;;9.83;48.80;101231.22;5012885;28;20455;-77
2022/04/13 04:52:58;;;;;;;12.88;4.93;;;;;;;9.92;47.52;101227.03;5012894;28;20105;-78
2022/04/13 04:55:24;;;;;;;26.73;5.90;;;;;;;9.89;47.97;101226.38;5012970;28;20114;-77
2022/04/13 04:57:50;;;;;;;22.77;7.57;;;;;;;9.95;47.58;101223.25;5013109;28;20029;-77
2022/04/13 05:00:17;;;;;;;21.27;7.60;;;;;;;9.91;47.69;101228.00;5013068;28;20129;-78
2022/04/13 05:02:44;;;;;;;16.42;6.80;;;;;;;9.96;48.13;101225.00;5012986;28;20026;-77
2022/04/13 05:05:09;;;;;;;22.02;6.22;;;;;;;10.14;47.69;101234.50;5012433;28;20745;-77
2022/04/13 05:07:35;;;;;;;29.15;5.78;;;;;;;10.21;46.91;101233.13;5012835;28;20093;-76
2022/04/13 05:10:00;;;;;;;18.17;4.93;;;;;;;10.28;46.57;101237.94;5012435;28;20036;-77
2022/04/13 05:12:27;;;;;;;17.02;5.43;;;;;;;10.43;46.38;101232.47;5012173;28;20068;-77
2022/04/13 05:14:54;;;;;;;25.35;6.15;;;;;;;10.59;46.13;101228.53;5011948;28;20131;-77
2022/04/13 05:17:21;;;;;;;19.27;4.75;;;;;;;10.78;45.30;101231.63;5011865;28;20388;-77
2022/04/13 05:19:46;;;;;;;16.20;4.70;;;;;;;10.97;45.02;101243.75;5012351;28;20041;-78
2022/04/13 05:22:12;;;;;;;6.80;3.67;;;;;;;11.11;44.09;101240.88;5011565;28;20433;-78
2022/04/13 05:24:37;;;;;;;9.07;3.92;;;;;;;11.15;44.17;101247.78;5011848;28;20492;-77
2022/04/13 05:27:03;;;;;;;31.10;8.25;;;;;;;11.20;44.39;101237.50;5012520;28;20022;-77
2022/04/13 05:29:28;;;;;;;16.90;5.00;;;;;;;11.14;44.31;101227.19;5012253;28;20026;-78
2022/04/13 05:31:54;;;;;;;7.85;4.60;;;;;;;11.15;44.35;101234.31;5011961;28;20092;-77
2022/04/13 05:34:19;;;;;;;20.45;6.20;;;;;;;11.14;44.77;101228.06;5012386;28;20127;-77
2022/04/13 05:36:44;;;;;;;14.40;5.75;;;;;;;11.18;44.05;101244.84;5011952;28;20026;-77
2022/04/13 05:39:10;;;;;;;12.02;4.85;;;;;;;11.10;43.64;101247.28;5012035;28;20026;-77
2022/04/13 05:41:35;;;;;;;7.18;4.63;;;;;;;11.11;43.45;101239.06;5011586;28;20050;-77
2022/04/13 05:44:01;;;;;;;22.42;6.05;;;;;;;11.09;43.86;101241.03;5013752;28;20053;-77
2022/04/13 05:46:26;;;;;;;17.40;6.13;;;;;;;11.15;44.21;101258.53;5011671;28;20049;-77
2022/04/13 05:48:52;;;;;;;16.98;5.35;;;;;;;11.14;43.17;101248.75;5010349;28;20034;-79
2022/04/13 05:51:17;;;;;;;9.55;5.43;;;;;;;11.16;43.16;101252.19;5011884;28;20041;-79
2022/04/13 05:53:43;;;;;;;12.40;6.15;;;;;;;11.19;43.42;101260.88;5012046;28;20022;-78
2022/04/13 05:56:08;;;;;;;21.63;4.93;;;;;;;11.08;43.58;101249.19;5017152;28;20109;-75
2022/04/13 05:58:34;;;;;;;13.57;5.85;;;;;;;11.13;43.15;101249.75;5029643;28;20022;-77
2022/04/13 06:00:59;;;;;;;34.80;8.75;;;;;;;11.14;43.63;101262.19;5012790;28;20018;-77
2022/04/13 06:03:25;;;;;;;21.00;6.35;;;;;;;11.18;43.74;101261.00;5011616;28;20040;-77
2022/04/13 06:05:51;;;;;;;20.38;5.90;;;;;;;11.12;42.70;101250.69;5011659;28;20110;-77
2022/04/13 06:08:17;;;;;;;39.08;9.10;;;;;;;11.13;43.69;101253.25;5011802;28;20040;-77
2022/04/13 06:10:42;;;;;;;13.95;6.60;;;;;;;11.20;43.26;101248.28;5010051;28;20037;-77
2022/04/13 06:13:08;;;;;;;10.07;5.18;;;;;;;11.37;43.98;101245.22;5010739;28;20077;-76
2022/04/13 06:15:34;;;;;;;28.17;10.57;;;;;;;11.41;44.08;101246.69;5011280;28;20499;-76
2022/04/13 06:17:59;;;;;;;12.63;5.80;;;;;;;11.51;41.78;101253.09;5011686;28;20489;-76
2022/04/13 06:20:25;;;;;;;9.05;4.75;;;;;;;11.52;41.92;101243.19;5010957;28;20117;-75
2022/04/13 06:22:52;;;;;;;9.88;4.95;;;;;;;11.42;42.42;101237.63;5011324;28;20038;-76
2022/04/13 06:25:18;;;;;;;27.83;6.18;;;;;;;11.58;42.12;101242.72;5011073;28;20077;-77
2022/04/13 06:27:46;;;;;;;8.68;4.95;;;;;;;11.68;42.33;101254.53;5011271;28;20054;-76
2022/04/13 06:30:13;;;;;;;13.00;5.00;;;;;;;11.69;42.61;101259.81;5010928;28;20127;-77
2022/04/13 06:32:45;;;;;;;9.15;5.00;;;;;;;11.65;41.91;101231.34;5010835;28;20041;-78
2022/04/13 06:35:17;;;;;;;9.35;5.05;;;;;;;11.79;41.07;101252.78;5013600;28;20029;-78
2022/04/13 06:37:46;;;;;;;11.43;4.80;;;;;;;11.81;41.00;101250.81;5018366;28;20029;-79
2022/04/13 06:40:13;;;;;;;17.25;5.45;;;;;;;11.79;41.33;101247.38;5015418;28;20113;-79
2022/04/13 06:42:39;;;;;;;13.60;5.00;;;;;;;11.78;41.75;101250.19;5014547;28;20099;-77
2022/04/13 06:45:10;;;;;;;16.17;4.95;;;;;;;11.92;41.01;101253.56;5014946;28;20040;-76
2022/04/13 06:47:36;;;;;;;13.38;5.38;;;;;;;12.00;41.12;101240.34;5008124;28;20022;-76
2022/04/13 06:50:02;;;;;;;14.52;5.57;;;;;;;12.18;40.50;101247.97;4995357;28;20516;-77
2022/04/13 06:52:32;;;;;;;18.83;6.03;;;;;;;12.32;40.09;101248.59;4995812;28;20157;-76
2022/04/13 06:54:58;;;;;;;6.78;4.85;;;;;;;12.41;39.67;101249.72;4994702;28;20422;-77
2022/04/13 06:57:23;;;;;;;18.55;5.03;;;;;;;12.50;39.65;101254.41;4995021;28;20030;-77
2022/04/13 06:59:49;;;;;;;7.15;4.82;;;;;;;12.51;38.04;101254.25;5002222;28;20030;-78
2022/04/13 07:02:14;;;;;;;7.75;4.90;;;;;;;12.47;38.20;101250.09;5014634;28;20034;-78
2022/04/13 07:04:40;;;;;;;13.07;5.40;;;;;;;12.50;38.97;101249.00;5014475;28;20026;-77
2022/04/13 07:07:06;;;;;;;14.32;5.45;;;;;;;12.60;38.50;101249.13;5014287;28;20044;-78
2022/04/13 07:09:32;;;;;;;14.05;6.13;;;;;;;12.59;38.58;101253.66;5014433;28;20061;-77
2022/04/13 07:11:57;;;;;;;10.95;4.55;;;;;;;12.54;38.13;101242.34;5013977;28;20038;-76
2022/04/13 07:14:23;;;;;;;11.85;4.63;;;;;;;12.54;37.98;101253.16;5013858;28;20128;-78
2022/04/13 07:16:48;;;;;;;11.05;5.85;;;;;;;12.56;38.05;101256.59;5014433;28;20058;-78
2022/04/13 07:19:14;;;;;;;9.35;5.47;;;;;;;12.62;38.03;101256.09;5014323;28;20801;-76
2022/04/13 07:21:39;;;;;;;10.82;5.63;;;;;;;12.73;37.71;101257.94;5014043;28;20109;-78
2022/04/13 07:24:05;;;;;;;10.00;5.60;;;;;;;12.85;37.05;101260.50;5014289;28;20033;-77
2022/04/13 07:26:32;;;;;;;10.52;4.97;;;;;;;12.87;37.39;101263.94;5014282;28;20014;-78
2022/04/13 07:28:57;;;;;;;11.52;5.70;;;;;;;12.82;37.24;101252.66;4997328;28;20073;-81
2022/04/13 07:31:23;;;;;;;22.65;6.50;;;;;;;12.91;37.08;101259.16;5012370;28;20030;-82
2022/04/13 07:33:48;;;;;;;11.43;5.00;;;;;;;13.00;36.33;101258.41;5016294;28;20026;-82
2022/04/13 07:36:13;;;;;;;16.60;5.65;;;;;;;13.17;35.74;101265.16;5031436;28;20089;-82
2022/04/13 07:38:39;;;;;;;9.95;4.72;;;;;;;13.20;35.80;101254.09;5018585;28;20117;-82
2022/04/13 07:41:05;;;;;;;10.50;4.25;;;;;;;13.35;35.79;101264.50;5014362;28;20042;-80
2022/04/13 07:43:31;;;;;;;11.38;4.88;;;;;;;13.40;35.54;101256.00;5014038;28;20400;-80
2022/04/13 07:45:57;;;;;;;10.10;4.90;;;;;;;13.54;35.57;101269.25;5014083;28;20061;-80
2022/04/13 07:48:22;;;;;;;10.55;4.45;;;;;;;13.58;35.70;101266.16;5015152;28;20125;-82
2022/04/13 07:50:48;;;;;;;10.70;4.72;;;;;;;13.64;35.87;101256.66;5015165;28;20037;-82
2022/04/13 07:53:14;;;;;;;6.50;4.15;;;;;;;13.76;35.49;101252.91;5014764;28;20026;-81
2022/04/13 07:55:40;;;;;;;8.80;4.75;;;;;;;13.99;34.73;101254.53;5014336;28;20104;-80
2022/04/13 07:58:06;;;;;;;9.38;4.47;;;;;;;13.99;34.29;101254.53;5014518;28;20104;-80
2022/04/13 08:00:32;;;;;;;8.10;4.15;;;;;;;14.04;33.95;101257.69;5013831;28;20041;-82
2022/04/13 08:02:58;;;;;;;14.00;5.15;;;;;;;14.13;34.07;101262.31;5014754;28;20030;-81
2022/04/13 08:05:26;;;;;;;8.35;4.30;;;;;;;14.13;33.34;101256.91;5018065;28;20033;-82
2022/04/13 08:07:51;;;;;;;10.20;4.63;;;;;;;13.82;33.30;101246.16;5017514;28;20026;-81
2022/04/13 08:10:17;;;;;;;7.55;4.07;;;;;;;13.80;33.77;101248.97;5016709;28;20022;-82
2022/04/13 08:12:46;;;;;;;13.40;4.30;;;;;;;13.79;33.73;101241.00;5014971;28;20144;-79
2022/04/13 08:15:12;;;;;;;11.55;6.20;;;;;;;13.87;34.47;101238.50;5014047;28;20129;-81
2022/04/13 08:17:39;;;;;;;10.80;4.85;;;;;;;13.90;34.41;101222.88;5014152;28;20109;-80
2022/04/13 08:20:07;;;;;;;13.10;4.63;;;;;;;13.99;34.65;101249.13;5014954;28;20049;-82
2022/04/13 08:22:32;;;;;;;15.60;5.13;;;;;;;14.14;34.83;101241.53;5015389;28;20041;-81
2022/04/13 08:24:57;;;;;;;10.20;4.43;;;;;;;14.18;34.71;101233.03;5015609;28;20026;-80
2022/04/13 08:27:23;;;;;;;7.28;4.30;;;;;;;14.25;34.04;101235.22;5013794;28;20464;-82
2022/04/13 08:29:49;;;;;;;14.48;4.85;;;;;;;14.38;34.13;101238.56;5014321;28;20021;-83
2022/04/13 08:32:22;;;;;;;10.05;4.57;;;;;;;14.46;33.87;101234.19;5012932;28;20025;-83
2022/04/13 08:34:52;;;;;;;10.80;6.10;;;;;;;14.56;34.48;101234.25;5013052;28;20030;-82
2022/04/13 08:37:21;;;;;;;9.95;3.97;;;;;;;14.52;34.27;101233.69;5016413;28;20052;-83
2022/04/13 08:39:46;;;;;;;11.02;4.03;;;;;;;14.45;33.69;101250.56;5015004;28;20018;-82
2022/04/13 08:42:21;;;;;;;11.75;4.07;;;;;;;14.47;33.26;101244.03;5016476;28;20026;-81
2022/04/13 08:44:50;;;;;;;12.77;6.55;;;;;;;14.55;33.77;101229.84;5024710;28;20018;-82
2022/04/13 08:47:19;;;;;;;14.00;6.10;;;;;;;14.63;33.60;101232.72;5028591;28;20025;-81
2022/04/13 08:49:48;;;;;;;8.40;4.30;;;;;;;14.70;33.29;101245.59;5027382;28;20080;-80
2022/04/13 08:52:15;;;;;;;7.88;4.00;;;;;;;14.64;33.44;101234.44;5014449;28;20087;-80
2022/04/13 08:55:05;;;;;;;9.65;3.92;;;;;;;14.68;33.26;101234.00;5014454;28;20053;-81
2022/04/13 08:57:38;;;;;;;15.27;4.00;;;;;;;14.85;33.20;101221.69;5014221;28;20025;-81
2022/04/13 09:00:08;;;;;;;6.72;3.95;;;;;;;14.98;33.04;101208.72;5011244;28;20475;-81
2022/04/13 09:02:45;;;;;;;10.18;4.82;;;;;;;15.14;33.38;101210.91;5012891;28;20026;-82
2022/04/13 09:05:18;;;;;;;8.50;4.30;;;;;;;15.31;32.75;101212.09;5012789;28;20026;-82
2022/04/13 09:07:49;;;;;;;8.70;3.78;;;;;;;15.17;32.75;101205.22;5012869;28;20462;-82
2022/04/13 09:10:20;;;;;;;11.65;4.63;;;;;;;15.04;32.87;101202.78;5013085;28;20049;-81
2022/04/13 09:12:47;;;;;;;11.77;4.35;;;;;;;14.93;31.89;101208.31;5013545;28;20026;-81
2022/04/13 09:15:13;;;;;;;10.75;3.40;;;;;;;14.97;31.52;101204.34;5027245;28;20060;-82
2022/04/13 09:17:40;;;;;;;5.72;3.72;;;;;;;14.94;31.59;101209.16;5016482;28;20030;-82
2022/04/13 09:20:06;;;;;;;13.48;4.03;;;;;;;14.99;32.40;101196.91;5012912;28;20018;-81
2022/04/13 09:22:34;;;;;;;8.52;3.35;;;;;;;15.15;31.55;101175.56;5012391;28;20079;-81
2022/04/13 09:25:01;;;;;;;6.63;3.33;;;;;;;15.25;30.75;101181.00;5012263;28;20026;-81
2022/04/13 09:27:26;;;;;;;9.45;3.55;;;;;;;15.24;31.46;101179.28;5012527;28;20022;-81
2022/04/13 09:29:52;;;;;;;10.10;4.35;;;;;;;15.31;31.84;101174.16;5011840;28;20484;-82
2022/04/13 09:32:18;;;;;;;13.90;3.88;;;;;;;15.46;31.04;101175.44;5011872;28;20025;-82
2022/04/13 09:34:45;;;;;;;4.85;3.00;;;;;;;15.50;30.04;101175.06;5012489;28;20479;-81
2022/04/13 09:37:11;;;;;;;13.07;3.53;;;;;;;15.44;30.59;101172.00;5012775;28;20022;-81
2022/04/13 09:39:38;;;;;;;6.32;3.75;;;;;;;15.33;30.87;101174.84;5012449;28;20022;-81
2022/04/13 09:42:04;;;;;;;8.43;4.13;;;;;;;15.25;31.56;101160.19;5012281;28;20022;-82
2022/04/13 09:44:30;;;;;;;5.63;3.72;;;;;;;15.35;30.36;101171.00;5012086;28;20026;-82
2022/04/13 09:47:10;;;;;;;10.43;3.50;;;;;;;15.30;30.12;101177.84;5011934;28;20021;-81
2022/04/13 09:49:40;;;;;;;10.27;3.70;;;;;;;15.14;30.20;101165.72;5012613;28;20022;-82
2022/04/13 09:52:06;;;;;;;7.55;3.78;;;;;;;15.17;29.86;101168.13;5011881;28;20025;-81
2022/04/13 09:54:32;;;;;;;8.60;3.60;;;;;;;15.25;29.82;101160.19;5012030;28;20084;-82
2022/04/13 09:56:57;;;;;;;5.63;3.72;;;;;;;15.38;30.25;101164.47;5012463;28;20480;-81
2022/04/13 09:59:25;;;;;;;9.05;3.72;;;;;;;15.35;30.14;101153.91;5011915;28;20025;-82
2022/04/13 10:01:51;;;;;;;13.43;4.13;;;;;;;15.54;30.21;101168.31;5011791;28;20101;-82
2022/04/13 10:04:27;;;;;;;9.02;3.13;;;;;;;15.56;30.12;101154.63;5011632;28;20407;-82
2022/04/13 10:06:53;;;;;;;15.45;4.90;;;;;;;15.63;30.50;101158.47;5017182;28;20025;-82
2022/04/13 10:09:22;;;;;;;8.88;3.60;;;;;;;15.69;30.21;101155.16;5015734;28;20507;-83
2022/04/13 10:12:03;;;;;;;7.20;3.33;;;;;;;15.69;29.96;101160.59;5016051;28;20052;-82
2022/04/13 10:14:29;;;;;;;5.70;2.88;;;;;;;15.56;29.41;101162.78;5016031;28;20113;-80
2022/04/13 10:16:57;;;;;;;13.10;3.90;;;;;;;15.50;28.82;101158.78;5016323;28;20452;-83
2022/04/13 10:19:23;;;;;;;5.05;3.28;;;;;;;15.54;29.76;101167.47;5016333;28;20036;-83
2022/04/13 10:21:52;;;;;;;6.15;2.65;;;;;;;15.49;30.18;101164.34;5016611;28;20018;-83
2022/04/13 10:24:23;;;;;;;7.63;2.88;;;;;;;15.51;29.81;101167.75;5016294;28;20029;-80
2022/04/13 10:27:10;;;;;;;10.77;3.10;;;;;;;15.60;29.35;101161.47;5017046;28;20025;-81
2022/04/13 10:29:41;;;;;;;8.48;3.33;;;;;;;15.66;29.92;101159.03;5015785;28;20049;-82
2022/04/13 10:32:06;;;;;;;9.13;3.35;;;;;;;16.00;30.33;101163.97;5015574;28;20033;-82
2022/04/13 10:34:34;;;;;;;14.10;3.63;;;;;;;15.97;29.49;101172.41;5019043;28;20030;-81
2022/04/13 10:37:00;;;;;;;8.27;3.92;;;;;;;15.97;29.27;101161.53;5028828;28;20037;-82
2022/04/13 10:39:25;;;;;;;8.23;2.92;;;;;;;16.01;29.15;101158.41;5014572;28;20406;-81
2022/04/13 10:41:51;;;;;;;12.48;4.72;;;;;;;15.98;29.19;101155.13;5015796;28;20032;-82
2022/04/13 10:44:29;;;;;;;8.93;3.85;;;;;;;15.94;29.22;101165.41;5016313;28;20064;-82
2022/04/13 10:47:00;;;;;;;14.98;3.10;;;;;;;15.90;29.45;101166.69;5015614;28;20022;-81
2022/04/13 10:49:30;;;;;;;9.75;4.10;;;;;;;15.99;29.63;101165.81;5015858;28;20132;-83
2022/04/13 10:52:02;;;;;;;8.50;3.60;;;;;;;16.06;29.58;101163.38;5018306;28;20404;-83
2022/04/13 10:54:33;;;;;;;9.52;3.25;;;;;;;16.08;29.40;101158.69;5036162;28;20124;-81
2022/04/13 10:56:59;;;;;;;7.53;3.95;;;;;;;16.10;29.63;101145.81;5016485;28;20025;-82
2022/04/13 10:59:32;;;;;;;3.30;2.10;;;;;;;16.35;29.48;101150.59;5015400;28;20084;-82
2022/04/13 11:02:05;;;;;;;5.70;3.28;;;;;;;16.59;30.08;101148.22;5014970;28;20033;-82
2022/04/13 11:04:33;;;;;;;9.35;2.97;;;;;;;16.70;28.69;101145.28;5016136;28;20025;-81
2022/04/13 11:07:01;;;;;;;9.27;3.30;;;;;;;16.71;28.91;101157.00;5014831;28;20113;-82
2022/04/13 11:09:31;;;;;;;8.45;3.45;;;;;;;16.67;28.81;101156.44;5014380;28;20029;-82
2022/04/13 11:11:58;;;;;;;6.30;2.72;;;;;;;16.83;28.98;101145.78;5015280;28;20403;-81
2022/04/13 11:14:25;;;;;;;5.40;3.00;;;;;;;17.04;28.74;101136.47;5014823;28;20531;-81
2022/04/13 11:17:05;;;;;;;15.00;3.42;;;;;;;17.24;28.82;101136.22;5015220;28;20026;-82
2022/04/13 11:19:31;;;;;;;6.28;3.55;;;;;;;17.25;28.41;101140.63;5014533;28;20058;-82